Time;durP1;ratioP1;P1;durP2;ratioP2;P2;SDS_P1;SDS_P2;PMS_P1;PMS_P2;Temp;Humidity;BMP_temperature;BMP_pressure;BME280_temperature;BME280_humidity;BME280_pressure;Samples;Min_cycle;Max_cycle;Signal;HPM_P1;HPM_P2
2022/06/04 00:01:56;;;;;;;4.47;4.27;;;21.90;68.20;;;;;;6103936;23;20404;-84
2022/06/04 00:04:23;;;;;;;4.40;4.00;;;21.90;68.30;;;;;;6128697;23;20500;-84
2022/06/04 00:06:50;;;;;;;4.40;4.00;;;21.90;69.00;;;;;;6102148;23;20851;-82
2022/06/04 00:09:20;;;;;;;3.90;3.70;;;21.90;69.40;;;;;;6102246;23;20428;-84
2022/06/04 00:17:19;;;;;;;4.17;3.87;;;21.80;69.90;;;;;;6127031;23;20376;-83
2022/06/04 00:19:46;;;;;;;4.83;4.30;;;21.70;70.00;;;;;;6101234;23;20442;-81
2022/06/04 00:22:12;;;;;;;5.10;4.07;;;21.80;69.90;;;;;;6128520;23;20418;-83
2022/06/04 00:24:41;;;;;;;4.30;3.63;;;21.80;70.10;;;;;;6127374;23;20408;-84
2022/06/04 00:27:20;;;;;;;3.50;3.27;;;21.70;70.50;;;;;;6128578;23;20388;-84
2022/06/04 00:29:48;;;;;;;4.33;3.93;;;21.70;70.60;;;;;;6129296;23;20440;-84
2022/06/04 00:32:17;;;;;;;4.37;4.07;;;21.70;71.10;;;;;;6127023;23;20420;-83
2022/06/04 00:34:44;;;;;;;4.27;3.93;;;21.60;71.60;;;;;;6127736;23;20392;-84
2022/06/04 00:37:10;;;;;;;4.00;3.70;;;21.70;71.80;;;;;;6101260;23;20408;-83
2022/06/04 00:39:38;;;;;;;4.90;3.73;;;21.70;71.80;;;;;;6126848;23;20428;-84
2022/06/04 00:42:10;;;;;;;4.10;3.70;;;21.70;71.70;;;;;;6128357;23;20410;-81
2022/06/04 00:44:55;;;;;;;4.40;4.00;;;21.70;71.60;;;;;;6102739;23;20396;-82
2022/06/04 00:47:28;;;;;;;4.07;3.83;;;21.70;71.60;;;;;;6128389;23;20394;-84
2022/06/04 00:49:55;;;;;;;3.80;3.60;;;21.70;71.60;;;;;;6127616;23;20447;-84
2022/06/04 00:52:25;;;;;;;4.40;4.00;;;21.70;71.50;;;;;;6127755;23;20494;-83
2022/06/04 00:54:56;;;;;;;4.30;4.00;;;21.70;71.60;;;;;;6127918;23;20745;-83
2022/06/04 00:57:46;;;;;;;4.47;4.17;;;21.70;71.30;;;;;;6127644;23;20456;-84
2022/06/04 01:00:17;;;;;;;3.50;3.30;;;21.80;71.30;;;;;;6127763;23;20947;-82
2022/06/04 01:03:17;;;;;;;4.00;3.70;;;21.70;71.00;;;;;;6130368;23;20426;-83
2022/06/04 01:06:02;;;;;;;4.20;3.90;;;21.60;70.90;;;;;;6127489;23;20392;-84
2022/06/04 01:08:51;;;;;;;4.40;3.47;;;21.70;70.90;;;;;;6127342;23;20419;-84
2022/06/04 01:14:47;;;;;;;4.00;3.70;;;21.50;71.10;;;;;;6127018;23;20410;-84
2022/06/04 01:17:30;;;;;;;4.50;4.20;;;21.50;71.10;;;;;;6126923;23;20423;-84
2022/06/04 01:20:14;;;;;;;4.70;4.30;;;21.60;71.30;;;;;;6127367;23;20973;-83
2022/06/04 01:23:10;;;;;;;4.30;4.00;;;21.50;72.00;;;;;;6128122;23;20763;-84
2022/06/04 01:26:03;;;;;;;4.23;3.93;;;21.60;71.20;;;;;;6129184;23;20460;-84
2022/06/04 01:28:31;;;;;;;5.63;5.13;;;21.50;71.20;;;;;;6134113;23;20510;-84
2022/06/04 01:31:03;;;;;;;4.50;3.93;;;21.40;71.70;;;;;;6135886;23;20446;-81
2022/06/04 01:33:42;;;;;;;4.33;4.03;;;21.50;72.10;;;;;;6140653;23;20486;-83
2022/06/04 01:36:17;;;;;;;4.60;4.27;;;21.70;71.30;;;;;;6139907;23;20402;-84
2022/06/04 01:38:51;;;;;;;5.50;4.33;;;21.80;70.70;;;;;;6130429;23;20511;-84
2022/06/04 01:41:23;;;;;;;4.70;3.83;;;21.90;70.50;;;;;;6131041;23;20419;-84
2022/06/04 01:43:57;;;;;;;4.97;4.67;;;21.60;71.30;;;;;;6102632;23;20407;-83
2022/06/04 01:46:48;;;;;;;4.77;4.17;;;21.50;71.50;;;;;;6101841;23;20408;-83
2022/06/04 01:49:32;;;;;;;4.20;3.90;;;21.30;72.50;;;;;;6126927;23;20459;-83
2022/06/04 01:52:05;;;;;;;3.83;3.63;;;21.30;73.20;;;;;;6128850;23;20483;-82
2022/06/04 01:54:36;;;;;;;6.60;4.43;;;21.20;73.40;;;;;;6128143;23;20400;-82
2022/06/04 01:57:17;;;;;;;4.53;4.23;;;21.30;74.00;;;;;;6129380;23;20389;-82
2022/06/04 01:59:51;;;;;;;4.20;3.97;;;21.20;73.50;;;;;;6127252;23;20433;-82
2022/06/04 02:02:28;;;;;;;6.13;4.33;;;21.30;73.10;;;;;;6101746;23;20427;-82
2022/06/04 02:05:02;;;;;;;4.27;4.07;;;21.40;72.80;;;;;;6102734;23;20380;-84
2022/06/04 02:07:36;;;;;;;4.20;3.90;;;21.50;72.00;;;;;;6130242;23;20392;-83
2022/06/04 02:10:21;;;;;;;4.50;4.10;;;21.60;71.70;;;;;;6130810;23;20496;-83
2022/06/04 02:12:51;;;;;;;5.47;4.87;;;21.40;71.60;;;;;;6130906;23;20400;-83
2022/06/04 02:15:23;;;;;;;4.00;3.70;;;21.20;72.70;;;;;;6129694;23;20915;-84
2022/06/04 02:17:56;;;;;;;4.57;4.27;;;20.90;74.10;;;;;;6129710;23;20503;-83
2022/06/04 02:20:24;;;;;;;4.20;4.00;;;21.00;76.20;;;;;;6131773;23;20434;-83
2022/06/04 02:22:53;;;;;;;5.33;3.73;;;20.80;76.40;;;;;;6106801;23;20437;-85
2022/06/04 02:25:21;;;;;;;4.63;4.20;;;20.80;76.40;;;;;;6131553;23;20484;-84
2022/06/04 02:27:50;;;;;;;5.07;4.67;;;20.60;76.70;;;;;;6130840;23;20404;-81
2022/06/04 02:30:17;;;;;;;4.73;4.33;;;20.60;77.10;;;;;;6131760;23;20443;-84
2022/06/04 02:32:48;;;;;;;4.67;4.30;;;20.60;77.60;;;;;;6132478;23;20419;-83
2022/06/04 02:35:25;;;;;;;5.83;3.70;;;20.60;77.70;;;;;;6133225;23;20412;-85
2022/06/04 02:38:14;;;;;;;4.47;4.17;;;20.70;77.50;;;;;;6136743;23;20392;-82
2022/06/04 02:40:45;;;;;;;12.83;5.07;;;20.60;77.10;;;;;;6138976;23;20507;-84
2022/06/04 02:43:29;;;;;;;11.10;3.90;;;20.60;78.10;;;;;;6113944;23;20399;-84
2022/06/04 02:46:15;;;;;;;4.47;4.07;;;20.40;78.60;;;;;;6140595;23;20463;-83
2022/06/04 02:48:51;;;;;;;4.00;3.80;;;20.50;78.90;;;;;;6151937;23;20415;-83
2022/06/04 02:51:22;;;;;;;4.27;4.07;;;20.60;78.20;;;;;;6153508;23;20423;-83
2022/06/04 02:53:50;;;;;;;4.20;3.90;;;20.50;78.70;;;;;;6153287;23;20400;-82
2022/06/04 02:56:21;;;;;;;5.03;3.80;;;20.50;79.50;;;;;;6127627;23;20404;-82
2022/06/04 02:58:52;;;;;;;4.70;4.20;;;20.40;80.10;;;;;;6152168;23;20419;-82
2022/06/04 03:01:27;;;;;;;5.40;5.00;;;20.50;79.90;;;;;;6150735;23;20472;-83
2022/06/04 03:03:54;;;;;;;5.37;4.97;;;20.60;79.80;;;;;;6118522;23;20419;-81
2022/06/04 03:06:31;;;;;;;7.73;5.43;;;20.50;80.10;;;;;;6112441;23;20416;-83
2022/06/04 03:09:05;;;;;;;5.33;5.03;;;20.60;80.10;;;;;;6136113;23;20456;-82
2022/06/04 03:11:43;;;;;;;5.40;5.00;;;20.50;79.90;;;;;;6142713;23;20427;-82
2022/06/04 03:14:11;;;;;;;4.87;4.57;;;20.50;80.60;;;;;;6144719;23;20590;-80
2022/06/04 03:16:39;;;;;;;5.43;5.07;;;20.30;81.00;;;;;;6144109;23;20408;-83
2022/06/04 03:19:07;;;;;;;5.10;4.80;;;20.30;81.70;;;;;;6138040;23;21145;-83
2022/06/04 03:21:35;;;;;;;5.33;4.83;;;20.30;82.10;;;;;;6135617;23;20416;-83
2022/06/04 03:24:04;;;;;;;5.07;4.67;;;20.30;82.00;;;;;;6134423;23;21158;-82
2022/06/04 03:26:31;;;;;;;5.20;4.80;;;20.20;82.80;;;;;;6111047;23;20416;-82
2022/06/04 03:28:58;;;;;;;5.80;5.30;;;20.30;82.20;;;;;;6137051;23;20522;-84
2022/06/04 03:31:28;;;;;;;5.23;4.83;;;20.20;82.20;;;;;;6136070;23;20483;-83
2022/06/04 03:33:56;;;;;;;5.00;4.60;;;20.00;82.50;;;;;;6136810;23;20457;-83
2022/06/04 03:36:25;;;;;;;5.67;5.20;;;20.10;83.30;;;;;;6112074;23;20523;-81
2022/06/04 03:38:55;;;;;;;6.13;5.67;;;20.00;83.50;;;;;;6139943;23;20434;-82
2022/06/04 03:41:22;;;;;;;5.70;5.30;;;19.90;83.30;;;;;;6109884;23;20396;-82
2022/06/04 03:43:52;;;;;;;5.70;5.20;;;20.00;82.40;;;;;;6134598;23;20411;-84
2022/06/04 03:46:25;;;;;;;5.33;4.83;;;20.00;82.00;;;;;;6142238;23;20483;-83
2022/06/04 03:48:56;;;;;;;5.73;5.23;;;19.90;82.10;;;;;;6105436;23;20435;-84
2022/06/04 03:51:25;;;;;;;5.30;4.80;;;20.10;82.30;;;;;;6103313;23;20446;-83
2022/06/04 03:53:52;;;;;;;5.60;5.20;;;20.00;81.90;;;;;;6127502;23;20403;-82
2022/06/04 03:56:26;;;;;;;5.53;5.13;;;20.10;81.60;;;;;;6127411;23;20404;-82
2022/06/04 03:58:53;;;;;;;5.50;5.10;;;20.00;82.10;;;;;;6127095;23;21005;-81
2022/06/04 04:01:25;;;;;;;5.20;4.80;;;20.10;82.40;;;;;;6128446;23;20411;-83
2022/06/04 04:03:52;;;;;;;5.40;5.00;;;20.00;82.70;;;;;;6129371;23;20395;-83
2022/06/04 04:06:23;;;;;;;5.10;4.80;;;20.00;83.10;;;;;;6127889;23;20412;-84
2022/06/04 04:08:51;;;;;;;5.40;5.00;;;19.90;82.70;;;;;;6126707;23;20424;-84
2022/06/04 04:11:20;;;;;;;4.77;4.40;;;20.00;83.30;;;;;;6128175;23;20436;-83
2022/06/04 04:13:47;;;;;;;5.50;5.03;;;20.00;83.60;;;;;;6128504;23;20486;-84
2022/06/04 04:16:15;;;;;;;5.33;4.93;;;20.20;82.10;;;;;;6127998;23;20422;-83
2022/06/04 04:18:42;;;;;;;5.37;4.97;;;20.10;81.70;;;;;;6102606;23;20760;-82
2022/06/04 04:21:12;;;;;;;5.30;4.90;;;20.20;82.70;;;;;;6128081;23;20754;-84
2022/06/04 04:23:40;;;;;;;5.90;5.40;;;20.10;82.00;;;;;;6129312;23;20419;-84
2022/06/04 04:26:09;;;;;;;5.90;5.07;;;20.00;82.30;;;;;;6130151;23;20426;-85
2022/06/04 04:28:36;;;;;;;5.97;5.57;;;19.90;83.00;;;;;;6128737;23;20440;-82
2022/06/04 04:31:10;;;;;;;5.53;5.13;;;19.90;83.40;;;;;;6129575;23;20847;-84
2022/06/04 04:33:38;;;;;;;5.20;4.80;;;19.90;83.50;;;;;;6129395;23;20530;-82
2022/06/04 04:36:06;;;;;;;5.40;4.90;;;19.90;83.60;;;;;;6129075;23;20475;-83
2022/06/04 04:38:33;;;;;;;6.07;5.63;;;19.80;83.40;;;;;;6129729;23;20427;-84
2022/06/04 04:40:59;;;;;;;5.37;5.00;;;20.00;83.20;;;;;;6126829;23;20412;-82
2022/06/04 04:43:26;;;;;;;5.80;5.40;;;20.00;82.50;;;;;;6128130;23;20970;-84
2022/06/04 04:46:01;;;;;;;6.17;5.67;;;20.10;82.20;;;;;;6127968;23;20467;-83
2022/06/04 04:48:28;;;;;;;5.83;5.30;;;19.90;82.40;;;;;;6128189;23;20411;-83
2022/06/04 04:50:55;;;;;;;6.20;5.60;;;20.10;82.70;;;;;;6128602;23;20446;-82
2022/06/04 04:53:23;;;;;;;5.90;5.30;;;20.20;81.70;;;;;;6128787;23;20408;-82
2022/06/04 04:55:49;;;;;;;5.33;4.93;;;20.20;81.70;;;;;;6129548;23;20978;-83
2022/06/04 04:58:16;;;;;;;5.53;5.13;;;20.20;81.30;;;;;;6128678;23;21203;-83
2022/06/04 05:00:43;;;;;;;5.50;5.10;;;20.20;81.50;;;;;;6131587;23;20437;-84
2022/06/04 05:03:10;;;;;;;5.70;5.10;;;20.20;81.90;;;;;;6131861;23;20407;-82
2022/06/04 05:05:37;;;;;;;5.23;4.90;;;20.20;81.30;;;;;;6135317;23;20412;-83
2022/06/04 05:08:04;;;;;;;5.43;5.03;;;20.30;81.10;;;;;;6127694;23;20414;-82
2022/06/04 05:10:30;;;;;;;5.60;5.00;;;20.20;81.50;;;;;;6127660;23;20436;-83
2022/06/04 05:12:57;;;;;;;5.30;4.90;;;20.30;81.70;;;;;;6129519;23;20423;-84
2022/06/04 05:15:25;;;;;;;6.07;5.57;;;20.50;80.70;;;;;;6129636;23;20875;-84
2022/06/04 05:17:52;;;;;;;5.50;5.20;;;20.60;80.00;;;;;;6103607;23;20930;-84
2022/06/04 05:20:19;;;;;;;5.73;5.30;;;20.60;79.50;;;;;;6102568;23;20932;-84
2022/06/04 05:22:46;;;;;;;6.00;5.50;;;20.40;80.20;;;;;;6130765;23;20416;-82
2022/06/04 05:25:13;;;;;;;6.07;5.67;;;20.70;80.30;;;;;;6127888;23;20404;-82
2022/06/04 05:27:40;;;;;;;6.33;5.07;;;20.70;79.50;;;;;;6103460;23;20450;-82
2022/06/04 05:30:07;;;;;;;5.50;5.00;;;20.50;79.90;;;;;;6128742;23;20947;-83
2022/06/04 05:32:34;;;;;;;5.97;5.47;;;20.50;80.40;;;;;;6129146;23;20970;-83
2022/06/04 05:35:02;;;;;;;5.87;5.23;;;20.60;79.90;;;;;;6130061;23;20399;-82
2022/06/04 05:37:28;;;;;;;5.50;5.10;;;20.80;80.50;;;;;;6128326;23;20412;-83
2022/06/04 05:40:01;;;;;;;4.87;4.57;;;20.70;78.80;;;;;;6129613;23;20431;-82
2022/06/04 05:42:27;;;;;;;6.17;5.50;;;20.90;78.60;;;;;;6137995;23;20415;-83
2022/06/04 05:44:54;;;;;;;6.20;5.70;;;20.90;79.00;;;;;;6129403;23;20410;-84
2022/06/04 05:47:21;;;;;;;6.50;6.00;;;20.90;78.70;;;;;;6130841;23;20431;-82
2022/06/04 05:49:47;;;;;;;6.17;5.67;;;20.90;78.60;;;;;;6130645;23;20467;-84
2022/06/04 05:52:14;;;;;;;5.80;5.40;;;21.00;77.40;;;;;;6131002;23;20439;-83
2022/06/04 05:54:41;;;;;;;5.77;5.27;;;20.80;77.80;;;;;;6131408;23;20412;-84
2022/06/04 05:57:07;;;;;;;5.60;5.20;;;20.70;79.00;;;;;;6106578;23;20412;-84
2022/06/04 05:59:34;;;;;;;5.00;4.70;;;20.80;79.50;;;;;;6134561;23;20434;-83
2022/06/04 06:02:01;;;;;;;6.10;5.60;;;20.90;78.20;;;;;;6117164;23;20442;-84
2022/06/04 06:04:28;;;;;;;5.83;5.43;;;21.00;78.60;;;;;;6142987;23;20477;-84
2022/06/04 06:06:58;;;;;;;5.70;5.30;;;20.90;78.70;;;;;;6142329;23;20420;-84
2022/06/04 06:09:27;;;;;;;5.63;5.23;;;20.90;78.50;;;;;;6135115;23;21007;-83
2022/06/04 06:11:54;;;;;;;5.90;5.43;;;20.90;78.90;;;;;;6129481;23;20813;-83
2022/06/04 06:14:22;;;;;;;5.60;5.10;;;21.00;79.10;;;;;;6128796;23;20411;-84
2022/06/04 06:16:54;;;;;;;6.40;5.90;;;20.80;78.50;;;;;;6128733;23;20415;-83
2022/06/04 06:19:28;;;;;;;6.03;5.63;;;21.00;78.70;;;;;;6122824;22;20532;-83
2022/06/04 06:21:54;;;;;;;6.20;5.80;;;21.00;78.50;;;;;;6132120;23;20416;-84
2022/06/04 06:24:28;;;;;;;5.10;4.67;;;21.00;79.00;;;;;;6130326;23;20404;-84
2022/06/04 06:26:58;;;;;;;5.83;5.30;;;20.90;79.60;;;;;;6131025;23;20419;-83
2022/06/04 06:29:27;;;;;;;5.50;5.00;;;21.00;79.20;;;;;;6104811;23;20434;-84
2022/06/04 06:31:55;;;;;;;5.40;5.00;;;21.00;79.60;;;;;;6131282;23;20446;-84
2022/06/04 06:34:24;;;;;;;6.77;6.30;;;21.20;79.10;;;;;;6104295;23;20408;-84
2022/06/04 06:36:50;;;;;;;5.47;5.07;;;21.20;78.00;;;;;;6131915;23;20418;-83
2022/06/04 06:39:18;;;;;;;6.13;5.70;;;21.20;78.80;;;;;;6132527;23;20420;-84
2022/06/04 06:41:46;;;;;;;6.10;5.60;;;21.30;78.10;;;;;;6131842;23;20982;-85
2022/06/04 06:44:13;;;;;;;5.63;5.13;;;20.90;78.80;;;;;;6129919;23;20463;-85
2022/06/04 06:46:43;;;;;;;5.33;4.90;;;20.90;80.10;;;;;;6128977;23;21004;-85
2022/06/04 06:49:19;;;;;;;5.87;5.40;;;21.00;79.40;;;;;;6129699;23;20432;-84
2022/06/04 06:51:49;;;;;;;6.00;5.50;;;21.20;79.50;;;;;;6105214;23;20454;-83
2022/06/04 06:54:18;;;;;;;6.43;5.60;;;21.40;78.40;;;;;;6104741;23;20431;-84
2022/06/04 06:56:46;;;;;;;5.83;5.23;;;21.60;78.30;;;;;;6130291;23;20400;-84
2022/06/04 06:59:13;;;;;;;5.43;5.03;;;21.60;77.50;;;;;;6130378;23;20424;-83
2022/06/04 07:01:42;;;;;;;5.73;5.37;;;21.60;77.80;;;;;;6130159;23;20980;-84
2022/06/04 07:04:09;;;;;;;5.90;5.40;;;21.80;77.50;;;;;;6130038;23;20435;-84
2022/06/04 07:06:39;;;;;;;6.17;5.73;;;21.90;77.20;;;;;;6130011;23;20502;-82
2022/06/04 07:09:18;;;;;;;6.80;6.30;;;21.80;77.60;;;;;;6106133;23;20438;-84
2022/06/04 07:11:46;;;;;;;5.73;5.33;;;21.90;77.50;;;;;;6130605;23;20431;-84
2022/06/04 07:14:13;;;;;;;6.33;5.93;;;21.90;77.60;;;;;;6130884;23;20776;-83
2022/06/04 07:16:40;;;;;;;5.63;5.30;;;22.00;77.50;;;;;;6103999;23;20479;-84
2022/06/04 07:19:07;;;;;;;5.43;5.03;;;22.00;76.50;;;;;;6129768;23;20439;-84
2022/06/04 07:21:34;;;;;;;5.80;5.40;;;21.90;77.50;;;;;;6131171;23;20396;-83
2022/06/04 07:24:01;;;;;;;5.70;5.20;;;22.20;77.50;;;;;;6106337;23;20416;-82
2022/06/04 07:26:28;;;;;;;6.10;5.60;;;22.30;76.50;;;;;;6138493;23;20470;-83
2022/06/04 07:28:54;;;;;;;5.77;5.37;;;22.30;76.30;;;;;;6139429;23;20446;-84
2022/06/04 07:31:22;;;;;;;7.27;5.93;;;22.20;76.00;;;;;;6130710;23;20471;-83
2022/06/04 07:33:52;;;;;;;5.67;5.27;;;22.30;76.20;;;;;;6130910;23;20412;-84
2022/06/04 07:36:30;;;;;;;5.97;5.43;;;22.40;76.40;;;;;;6128601;23;20396;-83
2022/06/04 07:39:00;;;;;;;6.27;5.73;;;22.40;75.70;;;;;;6130561;23;20427;-83
2022/06/04 07:41:33;;;;;;;5.93;5.53;;;22.30;76.20;;;;;;6103934;23;20408;-84
2022/06/04 07:44:00;;;;;;;5.33;4.93;;;22.10;76.50;;;;;;6130079;23;20447;-83
2022/06/04 07:46:29;;;;;;;5.57;5.00;;;22.00;77.30;;;;;;6130347;23;20925;-85
2022/06/04 07:49:03;;;;;;;6.50;6.00;;;22.60;76.20;;;;;;6129679;23;20430;-84
2022/06/04 07:51:33;;;;;;;6.80;5.70;;;22.70;74.40;;;;;;6105001;23;20401;-83
2022/06/04 07:54:00;;;;;;;6.23;5.83;;;22.70;74.90;;;;;;6128490;23;20757;-84
2022/06/04 07:56:28;;;;;;;7.07;6.47;;;22.50;75.60;;;;;;6129455;23;20439;-85
2022/06/04 07:58:58;;;;;;;5.80;5.37;;;22.60;76.20;;;;;;6103524;23;20424;-84
2022/06/04 08:01:24;;;;;;;5.80;5.40;;;22.70;75.70;;;;;;6128754;23;20416;-82
2022/06/04 08:03:53;;;;;;;6.07;5.47;;;23.00;75.10;;;;;;6103399;23;20475;-84
2022/06/04 08:06:31;;;;;;;6.90;6.40;;;23.30;74.70;;;;;;6105559;23;20407;-84
2022/06/04 08:08:58;;;;;;;6.70;6.10;;;23.20;75.00;;;;;;6130315;23;20439;-83
2022/06/04 08:11:31;;;;;;;6.27;5.67;;;23.30;74.50;;;;;;6104388;23;20420;-84
2022/06/04 08:14:16;;;;;;;6.43;6.00;;;23.20;74.30;;;;;;6104777;23;20388;-84
2022/06/04 08:16:51;;;;;;;5.37;5.07;;;23.30;74.40;;;;;;6132707;23;20396;-84
2022/06/04 08:19:22;;;;;;;6.20;5.67;;;23.60;74.50;;;;;;6130383;23;20435;-83
2022/06/04 08:21:52;;;;;;;6.07;5.67;;;23.50;74.60;;;;;;6130687;23;20416;-83
2022/06/04 08:24:23;;;;;;;6.67;6.00;;;23.70;73.20;;;;;;6132404;23;20906;-83
2022/06/04 08:26:53;;;;;;;5.77;5.27;;;23.60;72.80;;;;;;6108013;23;20420;-83
2022/06/04 08:29:20;;;;;;;6.00;5.60;;;23.70;72.80;;;;;;6134904;23;20539;-83
2022/06/04 08:31:47;;;;;;;5.60;5.30;;;24.00;71.20;;;;;;6109609;23;20457;-83
2022/06/04 08:34:14;;;;;;;5.77;5.37;;;23.90;71.10;;;;;;6135229;23;20798;-83
2022/06/04 08:36:43;;;;;;;6.10;5.60;;;23.80;71.60;;;;;;6134282;23;20419;-84
2022/06/04 08:39:10;;;;;;;5.97;5.37;;;23.90;71.50;;;;;;6134497;23;20435;-83
2022/06/04 08:42:05;;;;;;;5.77;5.37;;;23.70;72.40;;;;;;6105593;23;20478;-83
2022/06/04 08:44:40;;;;;;;5.80;5.03;;;24.10;72.30;;;;;;6105776;23;20402;-83
2022/06/04 08:47:33;;;;;;;6.63;5.87;;;24.60;71.20;;;;;;6130448;23;20395;-84
2022/06/04 08:50:14;;;;;;;5.40;4.90;;;24.60;70.20;;;;;;6131812;23;20424;-83
2022/06/04 08:52:54;;;;;;;6.17;5.77;;;24.60;69.80;;;;;;6130893;23;20427;-82
2022/06/04 08:58:28;;;;;;;5.57;5.13;;;24.50;70.30;;;;;;6130354;23;20399;-83
2022/06/04 09:01:39;;;;;;;4.40;4.10;;;24.90;70.40;;;;;;6104576;23;20403;-84
2022/06/04 09:04:24;;;;;;;5.33;4.93;;;25.10;68.80;;;;;;5993275;24;20443;-82
2022/06/04 09:07:06;;;;;;;4.97;4.57;;;25.10;68.20;;;;;;6133067;23;20458;-83
2022/06/04 09:10:05;;;;;;;5.93;5.07;;;25.10;68.20;;;;;;6144425;23;20503;-83
2022/06/04 09:12:47;;;;;;;5.53;5.03;;;25.90;66.40;;;;;;6131205;23;20479;-83
2022/06/04 09:15:17;;;;;;;5.13;4.73;;;26.30;63.60;;;;;;6105035;23;20470;-84
2022/06/04 09:17:51;;;;;;;13.63;5.70;;;27.80;60.20;;;;;;6129431;23;20408;-83
2022/06/04 09:20:20;;;;;;;5.97;5.43;;;29.10;57.60;;;;;;6129841;23;20931;-85
2022/06/04 09:22:48;;;;;;;4.90;4.27;;;28.70;56.50;;;;;;6128518;23;20770;-81
2022/06/04 09:25:18;;;;;;;5.80;5.20;;;27.90;57.90;;;;;;6127650;23;20428;-82
2022/06/04 09:28:09;;;;;;;5.67;5.27;;;28.30;57.60;;;;;;6127928;23;20474;-83
2022/06/04 09:30:40;;;;;;;5.60;5.20;;;27.80;58.40;;;;;;6130475;23;20441;-84
2022/06/04 09:33:38;;;;;;;5.67;5.27;;;27.40;59.10;;;;;;6103798;23;20449;-84
2022/06/04 09:36:11;;;;;;;6.43;5.83;;;27.40;60.10;;;;;;6130054;23;20880;-84
2022/06/04 09:38:50;;;;;;;6.33;5.90;;;27.50;59.60;;;;;;6131802;23;20428;-83
2022/06/04 09:41:22;;;;;;;7.70;6.13;;;27.50;59.70;;;;;;6133355;23;20413;-83
2022/06/04 09:44:12;;;;;;;5.80;5.20;;;27.30;59.40;;;;;;6130001;23;20420;-84
2022/06/04 09:46:43;;;;;;;6.93;6.30;;;27.20;60.60;;;;;;6129926;23;20439;-85
2022/06/04 09:49:29;;;;;;;6.43;5.90;;;26.90;60.20;;;;;;6131144;23;20439;-83
2022/06/04 09:51:57;;;;;;;6.00;5.57;;;26.70;61.40;;;;;;6131176;23;20396;-84
2022/06/04 09:54:33;;;;;;;7.70;6.00;;;27.40;60.40;;;;;;6133576;23;20403;-83
2022/06/04 09:57:05;;;;;;;6.70;5.00;;;27.60;59.80;;;;;;6108506;23;20872;-85
2022/06/04 09:59:34;;;;;;;5.83;5.33;;;27.20;60.50;;;;;;6134917;23;20495;-83
2022/06/04 10:02:18;;;;;;;5.60;5.20;;;26.90;61.60;;;;;;6110589;23;20419;-83
2022/06/04 10:04:48;;;;;;;6.00;5.50;;;26.80;62.80;;;;;;6140959;23;20396;-83
2022/06/04 10:07:19;;;;;;;6.03;5.50;;;26.80;62.20;;;;;;6114991;23;20471;-83
2022/06/04 10:09:56;;;;;;;5.73;5.27;;;26.60;63.20;;;;;;6110645;23;20793;-84
2022/06/04 10:15:39;;;;;;;5.30;4.90;;;26.60;64.50;;;;;;6151729;23;20438;-84
2022/06/04 10:18:18;;;;;;;6.27;5.87;;;26.50;64.00;;;;;;6151647;23;20391;-84
2022/06/04 10:21:09;;;;;;;5.60;5.20;;;26.30;64.50;;;;;;6141874;23;20447;-84
2022/06/04 10:23:46;;;;;;;6.10;5.60;;;26.20;65.00;;;;;;6117844;23;20400;-83
2022/06/04 10:26:37;;;;;;;5.70;5.20;;;26.40;64.60;;;;;;6135605;23;20468;-83
2022/06/04 10:29:22;;;;;;;6.73;5.23;;;26.90;63.60;;;;;;6134806;23;20431;-85
2022/06/04 10:32:03;;;;;;;5.20;4.80;;;27.20;63.40;;;;;;6133937;23;20407;-85
2022/06/04 10:34:50;;;;;;;6.37;5.73;;;27.80;60.60;;;;;;6135022;23;20403;-83
2022/06/04 10:37:34;;;;;;;7.20;6.60;;;27.80;59.20;;;;;;6134221;23;20880;-83
2022/06/04 10:40:20;;;;;;;6.00;5.60;;;27.20;59.90;;;;;;6111317;23;20515;-82
2022/06/04 10:43:16;;;;;;;5.50;5.00;;;27.00;60.90;;;;;;6132511;23;20411;-84
2022/06/04 10:46:03;;;;;;;4.80;4.50;;;27.30;61.10;;;;;;6107890;23;20475;-83
2022/06/04 10:48:52;;;;;;;6.27;4.97;;;27.80;59.90;;;;;;6132603;23;20422;-84
2022/06/04 10:51:54;;;;;;;5.07;4.77;;;28.40;59.00;;;;;;6137675;23;20376;-84
2022/06/04 10:54:29;;;;;;;6.03;5.63;;;28.50;57.90;;;;;;6140194;23;20449;-84
2022/06/04 10:57:21;;;;;;;6.10;5.40;;;28.50;58.20;;;;;;6135559;23;20487;-84
2022/06/04 11:00:18;;;;;;;6.30;5.70;;;29.20;57.90;;;;;;6133574;23;20459;-84
2022/06/04 11:02:49;;;;;;;6.83;6.00;;;29.00;58.00;;;;;;6109964;23;20416;-85
2022/06/04 11:05:24;;;;;;;6.50;6.00;;;28.70;58.40;;;;;;6136169;23;20403;-84
2022/06/04 11:07:57;;;;;;;6.57;5.90;;;28.50;58.80;;;;;;6133592;23;20864;-85
2022/06/04 11:10:30;;;;;;;6.57;5.97;;;29.00;58.80;;;;;;6139657;23;20443;-82
2022/06/04 11:13:09;;;;;;;5.83;5.43;;;28.90;58.30;;;;;;6124136;23;20519;-83
2022/06/04 11:16:13;;;;;;;6.40;5.90;;;29.10;58.00;;;;;;6149063;23;20404;-83
2022/06/04 11:18:46;;;;;;;6.47;5.87;;;30.20;56.60;;;;;;6124601;23;20439;-83
2022/06/04 11:21:49;;;;;;;6.20;5.67;;;30.40;55.50;;;;;;6148946;23;20378;-83
2022/06/04 11:24:19;;;;;;;5.53;5.20;;;30.10;55.80;;;;;;6149904;23;20411;-83
2022/06/04 11:27:00;;;;;;;6.50;5.50;;;30.50;55.50;;;;;;6148795;23;20415;-84
2022/06/04 11:29:27;;;;;;;6.73;6.30;;;31.10;55.30;;;;;;6121977;23;20435;-84
2022/06/04 11:32:12;;;;;;;5.73;5.23;;;30.50;55.20;;;;;;6110174;23;20412;-84
2022/06/04 11:34:55;;;;;;;5.93;5.50;;;30.70;55.70;;;;;;6132823;23;20906;-83
2022/06/04 11:37:52;;;;;;;6.77;6.20;;;30.00;55.60;;;;;;6133157;23;20450;-84
2022/06/04 11:40:28;;;;;;;7.33;6.90;;;31.30;55.50;;;;;;6134331;23;20436;-83
2022/06/04 11:42:59;;;;;;;5.40;5.00;;;31.10;54.10;;;;;;6133819;23;20443;-83
2022/06/04 11:45:59;;;;;;;6.27;5.87;;;31.40;54.00;;;;;;6134735;23;20468;-84
2022/06/04 11:48:46;;;;;;;5.57;5.07;;;31.10;53.80;;;;;;6110118;23;20467;-84
2022/06/04 11:52:03;;;;;;;5.50;5.10;;;30.80;55.20;;;;;;6136048;23;20395;-81
2022/06/04 11:54:52;;;;;;;6.40;5.93;;;31.20;55.00;;;;;;6054513;23;20451;-83
2022/06/04 11:57:46;;;;;;;6.83;6.20;;;31.60;53.40;;;;;;6134239;23;20392;-84
2022/06/04 12:00:34;;;;;;;5.33;5.03;;;31.30;53.60;;;;;;6132129;23;20968;-85
2022/06/04 12:03:16;;;;;;;6.00;5.60;;;32.10;53.10;;;;;;6111358;23;20947;-84
2022/06/04 12:06:05;;;;;;;6.30;5.77;;;32.50;51.70;;;;;;6111317;23;20388;-84
2022/06/04 12:08:38;;;;;;;5.57;5.17;;;31.70;52.00;;;;;;6112299;23;20428;-83
2022/06/04 12:11:13;;;;;;;6.80;6.40;;;31.60;53.10;;;;;;6138773;23;20418;-85
2022/06/04 12:13:45;;;;;;;5.90;5.50;;;30.80;53.70;;;;;;6136196;23;20510;-84
2022/06/04 12:16:17;;;;;;;6.20;5.70;;;30.30;55.10;;;;;;6111835;23;20419;-85
2022/06/04 12:18:50;;;;;;;5.87;5.37;;;30.70;55.60;;;;;;6111609;23;20428;-85
2022/06/04 12:24:40;;;;;;;5.90;5.50;;;32.30;51.70;;;;;;6136220;23;20978;-85
2022/06/04 12:27:24;;;;;;;6.47;5.97;;;31.40;53.40;;;;;;6112414;23;20396;-85
2022/06/04 12:29:56;;;;;;;5.87;5.37;;;32.00;52.60;;;;;;6120868;23;20446;-86
2022/06/04 12:32:31;;;;;;;6.37;5.80;;;32.30;52.00;;;;;;6147775;23;20387;-83
2022/06/04 12:35:09;;;;;;;6.90;6.30;;;32.40;52.20;;;;;;6146855;23;20458;-84
2022/06/04 12:37:40;;;;;;;6.73;6.33;;;32.50;51.90;;;;;;6134332;23;20396;-85
2022/06/04 12:40:15;;;;;;;6.93;6.33;;;31.70;52.90;;;;;;6133152;23;20508;-83
2022/06/04 12:42:45;;;;;;;6.97;6.37;;;32.00;52.70;;;;;;6131377;23;20422;-81
2022/06/04 12:45:52;;;;;;;6.73;6.33;;;32.50;52.10;;;;;;6133336;23;20772;-83
2022/06/04 12:48:33;;;;;;;7.00;6.40;;;32.40;52.00;;;;;;5986229;24;20432;-84
2022/06/04 12:51:10;;;;;;;6.90;6.30;;;31.70;52.90;;;;;;5988857;24;20412;-85
2022/06/04 12:54:03;;;;;;;6.10;5.60;;;31.70;53.60;;;;;;6092460;23;20435;-83
2022/06/04 12:56:35;;;;;;;6.97;6.40;;;32.40;52.50;;;;;;6126176;23;20427;-83
2022/06/04 12:59:05;;;;;;;7.27;6.67;;;31.90;53.10;;;;;;6148431;23;20443;-82
2022/06/04 13:01:34;;;;;;;6.50;5.90;;;31.00;54.30;;;;;;6131624;23;20422;-84
2022/06/04 13:04:10;;;;;;;6.67;6.20;;;31.10;54.90;;;;;;6133949;23;20443;-83
2022/06/04 13:07:00;;;;;;;6.30;5.70;;;32.00;53.00;;;;;;6134207;23;20502;-85
2022/06/04 13:09:45;;;;;;;6.57;6.03;;;31.70;53.00;;;;;;6135050;23;20435;-84
2022/06/04 13:12:41;;;;;;;5.40;5.00;;;31.40;53.90;;;;;;6133189;23;20411;-83
2022/06/04 13:15:43;;;;;;;6.70;6.03;;;32.00;52.70;;;;;;6109696;23;20412;-82
2022/06/04 13:18:20;;;;;;;6.00;5.60;;;31.30;53.50;;;;;;6064562;23;20412;-83
2022/06/04 13:20:51;;;;;;;6.30;5.90;;;31.70;52.90;;;;;;6136089;23;20398;-84
2022/06/04 13:23:36;;;;;;;6.07;5.70;;;31.00;53.80;;;;;;6136761;23;20415;-83
2022/06/04 13:26:09;;;;;;;5.83;5.37;;;30.90;54.70;;;;;;6136435;23;20875;-83
2022/06/04 13:28:46;;;;;;;6.27;5.77;;;31.30;54.00;;;;;;6148073;23;20492;-82
2022/06/04 13:31:23;;;;;;;6.10;5.60;;;31.20;54.30;;;;;;6152875;23;20383;-82
2022/06/04 13:33:53;;;;;;;5.70;5.30;;;31.10;54.60;;;;;;6152332;23;20489;-83
2022/06/04 13:36:34;;;;;;;6.70;6.10;;;30.80;54.80;;;;;;6126810;23;20372;-82
2022/06/04 13:39:01;;;;;;;8.40;5.90;;;30.70;55.40;;;;;;6151984;23;20498;-84
2022/06/04 13:44:42;;;;;;;6.57;6.10;;;30.80;55.80;;;;;;6148848;23;20407;-86